Time;durP1;ratioP1;P1;durP2;ratioP2;P2;SDS_P1;SDS_P2;PMS_P1;PMS_P2;Temp;Humidity;BMP_temperature;BMP_pressure;BME280_temperature;BME280_humidity;BME280_pressure;Samples;Min_cycle;Max_cycle;Signal;HPM_P1;HPM_P2
2023/12/18 00:01:04;;;;;;;40.15;16.90;;;7.80;99.90;;;;;;5026134;28;20072;-75
2023/12/18 00:03:29;;;;;;;39.05;15.35;;;7.80;99.90;;;;;;5022548;28;20034;-74
2023/12/18 00:05:55;;;;;;;41.35;16.85;;;7.80;99.90;;;;;;5018718;28;20053;-75
2023/12/18 00:08:21;;;;;;;39.22;15.98;;;7.80;99.90;;;;;;5025972;28;20041;-75
2023/12/18 00:10:47;;;;;;;33.30;16.13;;;7.80;99.90;;;;;;5022045;28;20095;-75
2023/12/18 00:13:12;;;;;;;30.80;15.45;;;7.80;99.90;;;;;;5025200;28;20046;-75
2023/12/18 00:15:38;;;;;;;37.72;16.25;;;7.80;99.90;;;;;;5023860;28;20044;-74
2023/12/18 00:18:04;;;;;;;33.00;16.40;;;7.80;99.90;;;;;;5028740;28;20123;-75
2023/12/18 00:20:29;;;;;;;32.55;15.63;;;7.80;99.90;;;;;;5024407;28;20056;-75
2023/12/18 00:22:55;;;;;;;34.17;16.10;;;7.90;99.90;;;;;;5027974;28;20118;-75
2023/12/18 00:25:20;;;;;;;31.35;16.55;;;7.80;99.90;;;;;;5024202;28;20048;-75
2023/12/18 00:27:46;;;;;;;35.92;16.38;;;7.80;99.90;;;;;;5018812;28;20049;-75
2023/12/18 00:30:12;;;;;;;34.20;15.88;;;7.90;99.90;;;;;;5017909;28;20099;-75
2023/12/18 00:32:37;;;;;;;34.10;14.70;;;7.80;99.90;;;;;;5028245;28;20037;-75
2023/12/18 00:35:03;;;;;;;34.65;15.73;;;7.90;99.90;;;;;;5017875;28;20412;-75
2023/12/18 00:37:29;;;;;;;32.30;16.40;;;7.80;99.90;;;;;;5047278;28;20398;-75
2023/12/18 00:39:54;;;;;;;35.08;15.80;;;7.90;99.90;;;;;;5016513;28;20042;-74
2023/12/18 00:42:20;;;;;;;31.90;15.50;;;7.90;99.90;;;;;;5015910;28;20448;-75
2023/12/18 00:44:45;;;;;;;34.22;16.65;;;7.90;99.90;;;;;;5022147;28;20124;-75
2023/12/18 00:47:11;;;;;;;33.45;15.80;;;7.90;99.90;;;;;;5022018;28;20041;-76
2023/12/18 00:49:37;;;;;;;33.95;15.48;;;7.90;99.90;;;;;;5031309;28;20041;-75
2023/12/18 00:52:02;;;;;;;35.53;15.43;;;7.90;99.90;;;;;;5013135;28;20079;-75
2023/12/18 00:54:28;;;;;;;32.45;15.25;;;7.90;99.90;;;;;;5028074;28;20088;-73
2023/12/18 00:56:54;;;;;;;33.13;15.55;;;7.90;99.90;;;;;;5013609;28;20044;-75
2023/12/18 00:59:19;;;;;;;38.50;14.90;;;7.90;99.90;;;;;;5027581;28;20125;-75
2023/12/18 01:01:45;;;;;;;34.47;14.55;;;7.90;99.90;;;;;;5026510;28;20546;-74
2023/12/18 01:04:11;;;;;;;34.42;13.98;;;8.00;99.90;;;;;;5024876;28;20037;-75
2023/12/18 01:06:37;;;;;;;33.35;14.93;;;7.90;99.90;;;;;;5024620;28;20501;-75
2023/12/18 01:09:03;;;;;;;31.48;15.20;;;8.00;99.90;;;;;;5017638;28;20493;-75
2023/12/18 01:11:28;;;;;;;32.30;15.05;;;8.00;99.90;;;;;;5020598;28;20041;-75
2023/12/18 01:13:54;;;;;;;26.27;13.88;;;8.00;99.90;;;;;;5015062;28;20049;-75
2023/12/18 01:16:19;;;;;;;37.67;15.85;;;8.00;99.90;;;;;;5011385;28;20034;-75
2023/12/18 01:18:45;;;;;;;29.73;15.10;;;8.00;99.90;;;;;;5020100;28;20045;-75
2023/12/18 01:21:13;;;;;;;32.85;14.68;;;8.00;99.90;;;;;;5025960;28;20530;-75
2023/12/18 01:23:39;;;;;;;34.95;14.98;;;8.00;99.90;;;;;;5014552;28;20073;-75
2023/12/18 01:26:04;;;;;;;32.78;15.43;;;8.00;99.90;;;;;;5015075;28;20132;-75
2023/12/18 01:28:30;;;;;;;27.63;13.68;;;8.00;99.90;;;;;;5027221;28;20056;-75
2023/12/18 01:30:56;;;;;;;29.13;15.00;;;8.00;99.90;;;;;;5030449;28;20052;-74
2023/12/18 01:33:22;;;;;;;32.25;15.10;;;8.00;99.90;;;;;;5018918;28;20038;-75
2023/12/18 01:35:47;;;;;;;29.27;14.35;;;8.00;99.90;;;;;;5013247;28;20057;-75
2023/12/18 01:38:13;;;;;;;30.42;14.73;;;8.00;99.90;;;;;;5021820;28;20044;-75
2023/12/18 01:40:38;;;;;;;31.25;15.10;;;8.00;99.90;;;;;;5026231;28;20041;-74
2023/12/18 01:43:22;;;;;;;31.88;14.00;;;8.10;99.90;;;;;;5022352;28;20037;-76
2023/12/18 01:45:59;;;;;;;33.97;14.32;;;8.10;99.90;;;;;;5028349;28;20041;-75
2023/12/18 01:48:25;;;;;;;38.72;16.23;;;8.10;99.90;;;;;;5020543;28;20459;-74
2023/12/18 01:50:54;;;;;;;35.25;15.20;;;8.10;99.90;;;;;;5017246;28;20045;-75
2023/12/18 01:53:22;;;;;;;27.60;15.55;;;8.10;99.90;;;;;;5026391;28;20427;-76
2023/12/18 01:55:48;;;;;;;29.15;14.70;;;8.10;99.90;;;;;;5019172;28;20127;-75
2023/12/18 01:58:13;;;;;;;29.90;14.13;;;8.10;99.90;;;;;;5042577;28;20488;-76
2023/12/18 02:00:40;;;;;;;36.28;15.63;;;8.10;99.90;;;;;;5028763;28;20041;-75
2023/12/18 02:03:08;;;;;;;27.95;14.50;;;8.10;99.90;;;;;;5012824;28;20045;-76
2023/12/18 02:05:35;;;;;;;31.17;14.50;;;8.20;99.90;;;;;;5015299;28;20403;-75
2023/12/18 02:08:01;;;;;;;26.45;14.65;;;8.10;99.90;;;;;;5019516;28;20682;-76
2023/12/18 02:10:26;;;;;;;38.13;15.20;;;8.20;99.90;;;;;;5029576;28;20121;-76
2023/12/18 02:12:52;;;;;;;29.88;14.20;;;8.20;99.90;;;;;;5029494;28;20120;-76
2023/12/18 02:15:18;;;;;;;31.88;15.15;;;8.10;99.90;;;;;;5028980;28;20485;-74
2023/12/18 02:17:43;;;;;;;33.33;15.07;;;8.20;99.90;;;;;;5038283;28;20503;-74
2023/12/18 02:20:09;;;;;;;35.83;15.20;;;8.20;99.90;;;;;;5023871;28;20582;-74
2023/12/18 02:22:48;;;;;;;29.75;14.05;;;8.20;99.90;;;;;;5024734;28;20040;-73
2023/12/18 02:25:16;;;;;;;31.17;14.77;;;8.20;99.90;;;;;;5027853;28;20056;-74
2023/12/18 02:27:44;;;;;;;29.63;14.35;;;8.20;99.90;;;;;;5026545;28;20083;-73
2023/12/18 02:30:15;;;;;;;24.63;14.25;;;8.20;99.90;;;;;;5032679;28;20067;-76
2023/12/18 02:32:41;;;;;;;27.42;13.38;;;8.20;99.90;;;;;;5026994;28;20053;-76
2023/12/18 02:35:07;;;;;;;27.60;13.52;;;8.20;99.90;;;;;;5031352;28;20080;-75
2023/12/18 02:37:33;;;;;;;25.25;14.82;;;8.20;99.90;;;;;;5025845;28;20057;-75
2023/12/18 02:39:58;;;;;;;28.10;14.55;;;8.20;99.90;;;;;;5029270;28;20037;-75
2023/12/18 02:42:24;;;;;;;30.10;15.35;;;8.20;99.90;;;;;;5031266;28;20380;-75
2023/12/18 02:44:49;;;;;;;33.10;15.00;;;8.20;99.90;;;;;;5048670;28;20056;-76
2023/12/18 02:47:15;;;;;;;32.78;14.05;;;8.20;99.90;;;;;;5024240;28;20038;-75
2023/12/18 02:49:40;;;;;;;30.02;14.63;;;8.20;99.90;;;;;;5032082;28;20049;-75
2023/12/18 02:52:06;;;;;;;27.55;14.75;;;8.20;99.90;;;;;;5032391;28;20037;-75
2023/12/18 02:54:31;;;;;;;29.63;15.75;;;8.10;99.90;;;;;;5032873;28;20034;-75
2023/12/18 02:56:57;;;;;;;32.67;16.58;;;8.10;99.90;;;;;;5026704;28;20049;-75
2023/12/18 02:59:22;;;;;;;39.25;17.27;;;9.20;99.90;;;;;;5020588;28;20046;-74
2023/12/18 03:01:48;;;;;;;38.13;16.55;;;8.10;99.90;;;;;;5013212;28;20103;-75
2023/12/18 03:04:18;;;;;;;30.67;17.20;;;8.10;99.90;;;;;;5022480;28;20037;-75
2023/12/18 03:06:45;;;;;;;31.20;16.38;;;8.00;99.90;;;;;;5031583;28;20041;-75
2023/12/18 03:09:10;;;;;;;35.90;17.17;;;8.00;99.90;;;;;;5032185;28;20045;-75
2023/12/18 03:11:36;;;;;;;37.17;17.10;;;8.00;99.90;;;;;;5010801;28;20040;-75
2023/12/18 03:14:01;;;;;;;34.85;17.05;;;8.00;99.90;;;;;;5029534;28;20042;-75
2023/12/18 03:16:27;;;;;;;35.22;16.75;;;8.00;99.90;;;;;;5019993;28;20477;-74
2023/12/18 03:18:53;;;;;;;31.13;16.23;;;7.90;99.90;;;;;;5020032;28;20041;-75
2023/12/18 03:21:18;;;;;;;35.45;17.15;;;7.90;99.90;;;;;;5020916;28;20057;-75
2023/12/18 03:23:44;;;;;;;37.20;17.50;;;7.90;99.90;;;;;;5027974;28;20041;-75
2023/12/18 03:26:09;;;;;;;32.90;18.02;;;7.90;99.90;;;;;;5022225;28;20037;-74
2023/12/18 03:28:35;;;;;;;32.47;15.98;;;7.90;99.90;;;;;;5032898;28;20040;-75
2023/12/18 03:31:00;;;;;;;34.53;16.92;;;7.90;99.90;;;;;;5023961;28;20049;-75
2023/12/18 03:33:26;;;;;;;35.53;17.00;;;7.90;99.90;;;;;;5022190;28;20030;-75
2023/12/18 03:35:51;;;;;;;33.28;17.20;;;7.90;99.90;;;;;;5028751;28;20115;-75
2023/12/18 03:38:17;;;;;;;31.95;16.95;;;7.90;99.90;;;;;;5021831;28;20122;-75
2023/12/18 03:40:42;;;;;;;30.90;16.23;;;7.70;99.90;;;;;;5019212;28;20053;-75
2023/12/18 03:43:08;;;;;;;39.75;17.50;;;7.90;99.90;;;;;;5021002;28;20046;-74
2023/12/18 03:45:33;;;;;;;33.70;17.42;;;7.90;99.90;;;;;;5021159;28;20038;-75
2023/12/18 03:47:59;;;;;;;40.67;18.30;;;8.60;99.90;;;;;;5024187;28;20561;-74
2023/12/18 03:50:25;;;;;;;34.13;17.00;;;7.80;99.90;;;;;;5017748;28;20136;-75
2023/12/18 03:52:50;;;;;;;31.88;18.00;;;7.90;99.90;;;;;;5023411;28;20055;-75
2023/12/18 03:55:16;;;;;;;33.10;16.42;;;7.80;99.90;;;;;;5013104;28;20503;-75
2023/12/18 03:57:42;;;;;;;35.97;16.60;;;7.80;99.90;;;;;;5028059;28;20041;-75
2023/12/18 04:00:08;;;;;;;33.35;16.48;;;7.80;99.90;;;;;;5021928;28;20117;-75
2023/12/18 04:02:33;;;;;;;33.72;17.60;;;7.80;99.90;;;;;;5030118;28;20033;-75
2023/12/18 04:04:59;;;;;;;30.65;17.42;;;7.80;99.90;;;;;;5030021;28;20476;-74
2023/12/18 04:07:24;;;;;;;35.70;18.08;;;7.80;99.90;;;;;;5020485;28;20041;-74
2023/12/18 04:09:50;;;;;;;36.10;17.90;;;7.80;99.90;;;;;;5029165;28;20419;-75
2023/12/18 04:12:15;;;;;;;35.17;16.25;;;8.70;99.90;;;;;;5029917;28;20045;-75
2023/12/18 04:14:42;;;;;;;36.97;17.85;;;7.80;99.90;;;;;;5025638;28;20516;-75
2023/12/18 04:17:08;;;;;;;32.55;17.08;;;7.80;99.90;;;;;;5029805;28;20041;-75
2023/12/18 04:19:34;;;;;;;32.13;15.98;;;7.80;99.90;;;;;;5025797;28;20099;-75
2023/12/18 04:21:59;;;;;;;31.98;17.10;;;7.70;99.90;;;;;;5037852;28;20076;-75
2023/12/18 04:24:25;;;;;;;32.95;16.85;;;7.80;99.90;;;;;;5030780;28;20033;-74
2023/12/18 04:26:50;;;;;;;31.70;16.02;;;7.80;99.90;;;;;;5024808;28;20172;-75
2023/12/18 04:29:17;;;;;;;30.20;16.13;;;7.80;99.90;;;;;;5020664;28;20050;-75
2023/12/18 04:31:43;;;;;;;30.50;16.55;;;7.80;99.90;;;;;;5019096;28;20033;-77
2023/12/18 04:34:08;;;;;;;32.28;16.40;;;7.80;99.90;;;;;;5029861;28;20151;-75
2023/12/18 04:36:40;;;;;;;33.72;16.95;;;7.80;99.90;;;;;;5027354;28;20029;-75
2023/12/18 04:39:06;;;;;;;33.95;16.33;;;7.80;99.90;;;;;;5029456;28;20041;-75
2023/12/18 04:41:32;;;;;;;35.17;16.60;;;7.80;99.90;;;;;;5013286;28;20400;-75
2023/12/18 04:43:58;;;;;;;31.38;15.43;;;7.80;99.90;;;;;;5020287;28;20063;-75
2023/12/18 04:46:24;;;;;;;32.55;16.13;;;7.80;99.90;;;;;;5010937;28;20073;-75
2023/12/18 04:48:50;;;;;;;30.98;16.23;;;7.80;99.90;;;;;;5009801;28;20120;-75
2023/12/18 04:51:16;;;;;;;27.75;15.15;;;7.80;99.90;;;;;;5030242;28;20446;-74
2023/12/18 04:53:41;;;;;;;27.05;14.68;;;7.80;99.90;;;;;;5026827;28;20049;-75
2023/12/18 04:56:07;;;;;;;29.42;14.35;;;7.80;99.90;;;;;;5036215;28;20128;-75
2023/12/18 04:58:35;;;;;;;31.08;14.70;;;7.80;99.90;;;;;;5016877;28;20123;-75
2023/12/18 05:01:04;;;;;;;35.30;15.63;;;7.90;99.90;;;;;;5026974;28;20068;-75
2023/12/18 05:03:29;;;;;;;29.05;15.32;;;7.90;99.90;;;;;;5027090;28;20042;-75
2023/12/18 05:05:55;;;;;;;31.30;14.80;;;7.90;99.90;;;;;;5019615;28;20060;-75
2023/12/18 05:08:20;;;;;;;31.25;15.05;;;7.90;99.90;;;;;;5010322;28;20121;-75
2023/12/18 05:10:46;;;;;;;29.63;15.02;;;7.90;99.90;;;;;;5022763;28;20073;-75
2023/12/18 05:13:11;;;;;;;29.38;14.98;;;7.90;99.90;;;;;;5029711;28;20038;-75
2023/12/18 05:15:37;;;;;;;29.20;15.82;;;7.90;99.90;;;;;;5015118;28;20037;-75
2023/12/18 05:18:05;;;;;;;32.10;15.50;;;7.90;99.90;;;;;;5020615;28;20050;-75
2023/12/18 05:20:30;;;;;;;29.27;15.98;;;7.90;99.90;;;;;;5019535;28;20041;-74
2023/12/18 05:22:56;;;;;;;33.20;16.95;;;7.90;99.90;;;;;;5028182;28;20029;-75
2023/12/18 05:25:21;;;;;;;28.63;15.55;;;7.90;99.90;;;;;;5027125;28;20042;-75
2023/12/18 05:27:47;;;;;;;33.55;16.80;;;7.90;99.90;;;;;;5024035;28;20049;-75
2023/12/18 05:30:13;;;;;;;31.10;16.27;;;7.90;99.90;;;;;;5011111;28;20053;-74
2023/12/18 05:32:38;;;;;;;33.50;15.88;;;7.90;99.90;;;;;;5016292;28;20049;-75
2023/12/18 05:35:04;;;;;;;35.92;16.85;;;7.80;99.90;;;;;;5017698;28;20052;-75
2023/12/18 05:37:30;;;;;;;33.55;16.10;;;8.40;99.90;;;;;;5034191;28;20510;-75
2023/12/18 05:39:56;;;;;;;38.42;15.98;;;7.80;99.90;;;;;;5015255;28;20041;-75
2023/12/18 05:42:21;;;;;;;34.83;17.00;;;7.80;99.90;;;;;;5014710;28;20049;-75
2023/12/18 05:44:47;;;;;;;32.78;15.48;;;7.80;99.90;;;;;;5028473;28;20029;-75
2023/12/18 05:47:12;;;;;;;30.45;15.52;;;7.80;99.90;;;;;;5033393;28;20191;-75
2023/12/18 05:49:38;;;;;;;34.75;15.82;;;7.80;99.90;;;;;;5031991;28;20045;-75
2023/12/18 05:52:04;;;;;;;31.95;15.02;;;7.80;99.90;;;;;;5032939;28;20048;-75
2023/12/18 05:54:30;;;;;;;35.42;15.73;;;7.80;99.90;;;;;;5024056;28;20502;-74
2023/12/18 05:56:56;;;;;;;29.67;15.25;;;7.80;99.90;;;;;;5026495;28;20061;-74
2023/12/18 05:59:21;;;;;;;34.05;15.73;;;7.80;99.90;;;;;;5017919;28;20171;-75
2023/12/18 06:01:47;;;;;;;28.10;14.48;;;7.80;99.90;;;;;;5025513;28;20128;-75
2023/12/18 06:04:12;;;;;;;29.52;14.35;;;7.90;99.90;;;;;;5020764;28;20410;-75
2023/12/18 06:06:38;;;;;;;31.98;15.23;;;7.90;99.90;;;;;;5021247;28;20527;-75
2023/12/18 06:09:04;;;;;;;31.95;16.25;;;7.90;99.90;;;;;;5029356;28;20575;-75
2023/12/18 06:11:29;;;;;;;27.90;15.63;;;7.90;99.90;;;;;;5029118;28;20045;-75
2023/12/18 06:13:55;;;;;;;33.42;15.35;;;7.90;99.90;;;;;;5030819;28;20045;-75
2023/12/18 06:16:21;;;;;;;29.70;15.52;;;7.90;99.90;;;;;;5030993;28;20049;-75
2023/12/18 06:18:46;;;;;;;27.17;14.90;;;7.90;99.90;;;;;;5019720;28;20037;-75
2023/12/18 06:21:12;;;;;;;30.38;14.43;;;7.90;99.90;;;;;;5020895;28;20042;-75
2023/12/18 06:23:38;;;;;;;33.00;15.32;;;7.90;99.90;;;;;;5030689;28;20043;-75
2023/12/18 06:26:04;;;;;;;27.00;15.32;;;7.90;99.90;;;;;;5032893;28;20050;-75
2023/12/18 06:28:30;;;;;;;33.58;15.95;;;7.90;99.90;;;;;;5022315;28;20084;-75
2023/12/18 06:30:55;;;;;;;29.48;15.00;;;7.90;99.90;;;;;;5017882;28;20404;-75
2023/12/18 06:33:21;;;;;;;29.25;16.25;;;7.90;99.90;;;;;;5026076;28;20029;-75
2023/12/18 06:35:47;;;;;;;41.17;16.45;;;7.90;99.90;;;;;;5028433;28;20034;-74
2023/12/18 06:38:12;;;;;;;31.58;15.90;;;7.90;99.90;;;;;;5022722;28;20054;-74
2023/12/18 06:40:39;;;;;;;30.45;16.63;;;7.90;99.90;;;;;;5021530;28;20423;-75
2023/12/18 06:43:04;;;;;;;32.50;15.80;;;7.90;99.90;;;;;;5028488;28;20049;-75
2023/12/18 06:45:30;;;;;;;31.75;15.90;;;7.90;99.90;;;;;;5021005;28;20080;-75
2023/12/18 06:47:55;;;;;;;36.45;16.63;;;7.90;99.90;;;;;;5017487;28;20489;-75
2023/12/18 06:50:21;;;;;;;29.25;16.45;;;7.90;99.90;;;;;;5030848;28;20037;-74
2023/12/18 06:52:47;;;;;;;33.35;16.80;;;7.90;99.90;;;;;;5025134;28;20053;-73
2023/12/18 06:55:12;;;;;;;35.83;16.23;;;7.80;99.90;;;;;;5025693;28;20547;-75
2023/12/18 06:57:38;;;;;;;32.40;16.52;;;7.90;99.90;;;;;;5031921;28;20045;-77
2023/12/18 07:00:05;;;;;;;30.98;16.67;;;7.90;99.90;;;;;;5039402;28;20038;-75
2023/12/18 07:02:30;;;;;;;30.23;16.98;;;7.90;99.90;;;;;;5029287;28;20034;-75
2023/12/18 07:04:56;;;;;;;29.67;16.17;;;7.90;99.90;;;;;;5025412;28;20049;-75
2023/12/18 07:07:22;;;;;;;37.90;16.80;;;7.90;99.90;;;;;;5031948;28;20056;-76
2023/12/18 07:09:47;;;;;;;36.15;17.00;;;7.90;99.90;;;;;;5045827;28;20572;-74
2023/12/18 07:12:13;;;;;;;30.33;16.85;;;7.90;99.90;;;;;;5019324;28;20108;-75
2023/12/18 07:14:41;;;;;;;33.50;17.08;;;7.90;99.90;;;;;;5031534;28;20049;-76
2023/12/18 07:17:07;;;;;;;35.60;17.75;;;7.90;99.90;;;;;;5023858;28;20046;-76
2023/12/18 07:19:32;;;;;;;31.75;17.27;;;7.90;99.90;;;;;;5020150;28;20044;-75
2023/12/18 07:21:58;;;;;;;32.28;17.15;;;7.90;99.90;;;;;;5021339;28;20083;-75
2023/12/18 07:24:23;;;;;;;35.80;16.65;;;7.90;99.90;;;;;;5030385;28;20044;-75
2023/12/18 07:26:49;;;;;;;32.55;18.00;;;7.90;99.90;;;;;;5024331;28;20091;-75
2023/12/18 07:29:15;;;;;;;32.35;18.33;;;8.00;99.90;;;;;;5021809;28;20125;-75
2023/12/18 07:31:40;;;;;;;36.60;18.25;;;8.00;99.90;;;;;;5026142;28;20049;-77
2023/12/18 07:34:06;;;;;;;36.95;18.83;;;7.90;99.90;;;;;;5029038;28;20030;-75
2023/12/18 07:36:35;;;;;;;37.80;19.38;;;7.90;99.90;;;;;;5020196;28;20029;-77
2023/12/18 07:39:00;;;;;;;31.55;18.00;;;8.00;99.90;;;;;;5029965;28;20099;-75
2023/12/18 07:41:30;;;;;;;37.03;20.42;;;8.00;99.90;;;;;;5027252;28;20034;-75
2023/12/18 07:43:56;;;;;;;35.30;18.98;;;8.00;99.90;;;;;;5038562;28;20037;-75
2023/12/18 07:46:22;;;;;;;34.63;19.13;;;8.00;99.90;;;;;;5015703;28;20037;-75
2023/12/18 07:48:48;;;;;;;35.85;19.48;;;8.00;99.90;;;;;;5023901;28;20057;-75
2023/12/18 07:51:14;;;;;;;39.17;19.67;;;8.00;99.90;;;;;;5017930;28;20425;-75
2023/12/18 07:53:40;;;;;;;32.20;19.70;;;8.00;99.90;;;;;;5022482;28;20095;-75
2023/12/18 07:56:06;;;;;;;34.83;19.23;;;8.00;99.90;;;;;;5022197;28;20045;-75
2023/12/18 07:58:31;;;;;;;37.92;19.95;;;7.90;99.90;;;;;;5016052;28;20049;-75
2023/12/18 08:00:57;;;;;;;33.97;20.20;;;8.00;99.90;;;;;;5026036;28;20041;-75
2023/12/18 08:03:22;;;;;;;34.53;19.42;;;7.90;99.90;;;;;;5030319;28;20043;-75
2023/12/18 08:05:48;;;;;;;37.08;20.15;;;8.00;99.90;;;;;;5029912;28;20057;-75
2023/12/18 08:08:13;;;;;;;35.40;19.73;;;8.00;99.90;;;;;;5023567;28;20415;-75
2023/12/18 08:10:39;;;;;;;32.83;20.17;;;7.90;99.90;;;;;;5028805;28;20053;-75
2023/12/18 08:13:05;;;;;;;37.67;20.83;;;7.90;99.90;;;;;;5028894;28;20033;-75
2023/12/18 08:15:31;;;;;;;36.35;19.88;;;8.00;99.90;;;;;;5052025;22;20136;-75
2023/12/18 08:17:57;;;;;;;35.90;20.83;;;7.90;99.90;;;;;;5013695;28;20041;-75
2023/12/18 08:20:23;;;;;;;36.92;21.05;;;7.90;99.90;;;;;;5011809;28;20038;-76
2023/12/18 08:22:49;;;;;;;38.35;20.60;;;7.90;99.90;;;;;;5022571;28;20040;-76
2023/12/18 08:25:25;;;;;;;37.35;20.02;;;7.90;99.90;;;;;;5013323;28;20454;-77
2023/12/18 08:27:51;;;;;;;36.58;20.00;;;7.90;99.90;;;;;;5014942;28;20042;-76
2023/12/18 08:30:16;;;;;;;40.33;20.85;;;8.00;99.90;;;;;;5026914;28;20052;-77
2023/12/18 08:32:42;;;;;;;38.70;20.52;;;8.00;99.90;;;;;;5009807;28;20045;-77
2023/12/18 08:35:08;;;;;;;36.97;20.95;;;8.50;99.90;;;;;;5014135;28;20041;-77
2023/12/18 08:37:33;;;;;;;39.38;20.20;;;8.00;99.90;;;;;;5014772;28;20037;-77
2023/12/18 08:39:59;;;;;;;37.65;20.95;;;8.00;99.90;;;;;;5014093;28;20483;-75
2023/12/18 08:42:25;;;;;;;36.65;20.85;;;8.00;99.90;;;;;;5027409;28;20025;-75
2023/12/18 08:44:51;;;;;;;38.47;20.58;;;8.00;99.90;;;;;;5013925;28;20605;-76
2023/12/18 08:47:20;;;;;;;34.70;19.45;;;8.10;99.90;;;;;;5031610;28;20545;-76
2023/12/18 08:49:46;;;;;;;37.45;19.20;;;8.50;99.90;;;;;;4997454;28;20047;-76
2023/12/18 08:52:15;;;;;;;38.90;20.15;;;8.00;99.90;;;;;;5027004;28;20356;-75
2023/12/18 08:54:40;;;;;;;38.45;21.08;;;8.10;99.90;;;;;;5031185;28;20053;-75
2023/12/18 08:57:06;;;;;;;35.45;21.10;;;8.10;99.90;;;;;;5010707;28;20087;-75
2023/12/18 08:59:31;;;;;;;35.90;19.70;;;8.10;99.90;;;;;;5013009;28;20053;-75
2023/12/18 09:01:57;;;;;;;37.97;20.20;;;8.10;99.90;;;;;;5031257;28;20037;-75
2023/12/18 09:04:23;;;;;;;40.60;20.02;;;8.10;99.90;;;;;;5022052;28;20073;-76
2023/12/18 09:06:49;;;;;;;41.22;21.10;;;8.10;99.90;;;;;;5013829;28;20041;-76
2023/12/18 09:09:15;;;;;;;36.00;20.15;;;8.10;99.90;;;;;;5013326;28;20310;-75
2023/12/18 09:11:41;;;;;;;37.85;19.95;;;8.40;99.90;;;;;;4989907;28;20121;-77
2023/12/18 09:14:08;;;;;;;35.22;19.30;;;8.20;99.90;;;;;;4999129;28;20040;-76
2023/12/18 09:16:35;;;;;;;36.72;20.70;;;8.20;99.90;;;;;;4996604;28;20029;-75
2023/12/18 09:19:02;;;;;;;38.30;20.30;;;8.20;99.90;;;;;;5012987;28;20061;-75
2023/12/18 09:21:27;;;;;;;45.63;21.50;;;8.20;99.90;;;;;;5001473;28;20157;-75
2023/12/18 09:23:53;;;;;;;38.55;19.92;;;8.20;99.90;;;;;;5017268;28;20050;-74
2023/12/18 09:26:20;;;;;;;39.15;20.77;;;8.30;99.90;;;;;;5005112;28;20049;-75
2023/12/18 09:28:46;;;;;;;36.65;19.95;;;8.30;99.90;;;;;;5025029;28;20037;-75
2023/12/18 09:31:11;;;;;;;40.92;21.33;;;8.30;99.90;;;;;;5005124;28;20041;-75
2023/12/18 09:33:37;;;;;;;40.92;22.08;;;8.30;99.90;;;;;;5007881;28;20511;-75
2023/12/18 09:36:05;;;;;;;36.97;21.05;;;9.00;99.90;;;;;;4994895;28;20403;-75
2023/12/18 09:38:31;;;;;;;37.67;19.92;;;8.30;99.90;;;;;;5028403;28;20077;-75
2023/12/18 09:40:58;;;;;;;38.33;20.83;;;8.30;99.90;;;;;;5029875;28;20041;-75
2023/12/18 09:43:27;;;;;;;36.15;21.40;;;8.30;99.90;;;;;;4996627;28;20034;-75
2023/12/18 09:45:54;;;;;;;36.72;21.25;;;8.30;99.90;;;;;;5013164;28;20041;-75
2023/12/18 09:48:20;;;;;;;37.65;20.67;;;8.40;99.90;;;;;;5030530;28;20042;-75
2023/12/18 09:50:46;;;;;;;37.45;20.98;;;8.40;99.90;;;;;;5025681;28;20053;-75
2023/12/18 09:53:20;;;;;;;37.55;20.45;;;8.40;99.90;;;;;;5021507;28;20125;-75
2023/12/18 09:55:51;;;;;;;39.30;20.80;;;8.40;99.90;;;;;;5041356;28;20100;-75
2023/12/18 09:58:19;;;;;;;36.17;21.23;;;8.40;99.90;;;;;;5004043;28;20475;-75
2023/12/18 10:00:46;;;;;;;40.65;20.63;;;8.40;99.90;;;;;;5027544;28;20084;-75
2023/12/18 10:03:15;;;;;;;43.33;21.13;;;8.50;99.90;;;;;;5011508;28;20136;-75
2023/12/18 10:05:42;;;;;;;35.95;20.42;;;8.50;99.90;;;;;;5042249;28;20049;-75
2023/12/18 10:08:09;;;;;;;38.38;20.58;;;8.50;99.90;;;;;;5009088;28;20045;-75
2023/12/18 10:10:35;;;;;;;38.38;20.45;;;8.50;99.90;;;;;;5029576;28;20510;-75
2023/12/18 10:13:03;;;;;;;40.63;20.92;;;8.50;99.90;;;;;;5021947;28;20463;-75
2023/12/18 10:15:29;;;;;;;35.88;21.88;;;8.50;99.90;;;;;;5029454;28;20547;-75
2023/12/18 10:17:55;;;;;;;38.38;21.70;;;8.50;99.90;;;;;;5026670;28;20041;-75
2023/12/18 10:20:28;;;;;;;40.05;21.02;;;8.50;99.90;;;;;;5011761;28;20047;-75
2023/12/18 10:22:54;;;;;;;34.10;20.05;;;8.50;99.90;;;;;;5012565;28;20033;-75
2023/12/18 10:25:22;;;;;;;39.75;20.65;;;8.60;99.90;;;;;;5015709;28;20045;-75
2023/12/18 10:27:48;;;;;;;35.33;21.30;;;8.60;99.90;;;;;;5007072;28;20060;-75
2023/12/18 10:30:13;;;;;;;37.65;21.30;;;8.60;99.90;;;;;;5007595;28;20124;-75
2023/12/18 10:32:40;;;;;;;41.60;21.65;;;8.60;99.90;;;;;;5033391;28;20415;-75
2023/12/18 10:35:07;;;;;;;37.90;19.80;;;9.50;99.90;;;;;;5031987;28;20029;-75
2023/12/18 10:37:39;;;;;;;37.47;20.00;;;8.70;99.90;;;;;;5035000;28;20037;-76
2023/12/18 10:40:07;;;;;;;40.30;21.75;;;8.60;99.90;;;;;;5030288;28;20113;-75
2023/12/18 10:42:37;;;;;;;39.33;21.33;;;8.60;99.90;;;;;;5028373;28;20037;-75
2023/12/18 10:45:07;;;;;;;40.13;22.20;;;8.70;99.90;;;;;;4998973;28;20040;-75
2023/12/18 10:47:33;;;;;;;36.90;21.23;;;8.60;99.90;;;;;;5032170;28;20033;-75
2023/12/18 10:50:04;;;;;;;44.33;22.42;;;8.60;99.90;;;;;;5015576;28;20112;-75
2023/12/18 10:52:31;;;;;;;40.83;22.60;;;8.60;99.90;;;;;;5032433;28;20044;-75
2023/12/18 10:55:04;;;;;;;46.83;23.33;;;8.60;99.90;;;;;;5033297;28;20573;-75
2023/12/18 10:57:31;;;;;;;45.55;23.25;;;8.60;99.90;;;;;;5032651;28;20049;-75
2023/12/18 10:59:58;;;;;;;42.03;22.60;;;8.60;99.90;;;;;;5033303;28;20029;-76
2023/12/18 11:02:25;;;;;;;42.58;22.33;;;8.60;99.90;;;;;;5033844;28;20041;-75
2023/12/18 11:04:52;;;;;;;42.75;23.23;;;8.60;99.90;;;;;;5032680;28;20079;-75
2023/12/18 11:07:19;;;;;;;38.72;22.10;;;8.60;99.90;;;;;;5015012;28;20128;-75
2023/12/18 11:09:46;;;;;;;39.65;21.10;;;8.60;99.90;;;;;;5027284;28;20073;-75
2023/12/18 11:12:16;;;;;;;38.10;21.77;;;9.20;99.90;;;;;;5013834;28;20072;-75
2023/12/18 11:15:29;;;;;;;36.67;21.08;;;8.70;99.90;;;;;;5010566;28;20052;-75
2023/12/18 11:18:26;;;;;;;30.70;18.63;;;8.70;99.90;;;;;;4936131;29;20071;-75
2023/12/18 11:20:54;;;;;;;39.80;19.75;;;8.80;99.90;;;;;;5034138;28;20078;-75
2023/12/18 11:23:20;;;;;;;44.08;20.15;;;8.80;99.90;;;;;;5015082;28;20041;-75
2023/12/18 11:25:49;;;;;;;36.58;19.88;;;9.00;99.90;;;;;;5007179;28;20056;-75
2023/12/18 11:28:15;;;;;;;32.53;19.92;;;8.90;99.90;;;;;;4992525;28;20041;-75
2023/12/18 11:30:43;;;;;;;37.28;20.30;;;8.90;99.90;;;;;;5010167;28;20043;-75
2023/12/18 11:33:14;;;;;;;31.88;20.02;;;8.90;99.90;;;;;;4999750;28;20499;-75
2023/12/18 11:35:48;;;;;;;33.78;19.35;;;9.80;99.90;;;;;;4993367;28;20052;-75
2023/12/18 11:38:20;;;;;;;42.35;20.40;;;9.00;99.90;;;;;;5013167;28;20042;-75
2023/12/18 11:40:49;;;;;;;37.15;19.85;;;9.00;99.90;;;;;;4990380;28;20400;-75
2023/12/18 11:43:36;;;;;;;40.63;20.88;;;9.00;99.90;;;;;;5029605;28;20037;-75
2023/12/18 11:46:03;;;;;;;39.30;19.05;;;9.80;99.90;;;;;;5014190;28;20117;-75
2023/12/18 11:48:29;;;;;;;34.67;19.65;;;9.10;99.90;;;;;;4999109;28;20045;-75
2023/12/18 11:50:59;;;;;;;37.00;20.25;;;9.10;99.90;;;;;;5022289;28;20519;-75
2023/12/18 11:53:25;;;;;;;32.45;19.23;;;9.10;99.90;;;;;;5015647;28;20396;-75
2023/12/18 11:55:54;;;;;;;34.50;19.42;;;9.10;99.90;;;;;;5019669;28;20041;-75
2023/12/18 11:58:29;;;;;;;36.00;19.10;;;9.10;99.90;;;;;;5030742;28;20670;-75
2023/12/18 12:00:56;;;;;;;38.35;19.33;;;9.10;99.90;;;;;;5014437;28;20052;-75
2023/12/18 12:03:22;;;;;;;37.33;19.80;;;9.00;99.90;;;;;;5012101;28;20037;-75
2023/12/18 12:05:49;;;;;;;42.55;19.83;;;9.00;99.90;;;;;;5023720;28;20037;-75
2023/12/18 12:08:15;;;;;;;34.42;18.90;;;9.00;99.90;;;;;;5014358;28;20513;-75
2023/12/18 12:10:50;;;;;;;42.47;20.02;;;9.00;99.90;;;;;;5008573;28;20072;-75
2023/12/18 12:13:35;;;;;;;34.42;18.17;;;9.00;99.90;;;;;;5031945;28;20049;-75
2023/12/18 12:16:03;;;;;;;36.65;19.42;;;9.00;99.90;;;;;;5005291;28;20044;-77
2023/12/18 12:18:33;;;;;;;34.33;19.08;;;9.10;99.90;;;;;;5026830;28;20042;-75
2023/12/18 12:20:59;;;;;;;36.67;19.95;;;9.00;99.90;;;;;;5031946;28;20044;-75
2023/12/18 12:23:26;;;;;;;40.42;20.65;;;9.00;99.90;;;;;;5011754;28;20033;-75
2023/12/18 12:25:56;;;;;;;38.28;19.88;;;9.00;99.90;;;;;;5031523;28;20045;-75
2023/12/18 12:28:22;;;;;;;37.33;18.92;;;9.00;99.90;;;;;;5005066;28;20558;-75
2023/12/18 12:30:47;;;;;;;36.10;19.85;;;9.00;99.90;;;;;;5009273;28;20045;-75
2023/12/18 12:33:16;;;;;;;36.35;19.33;;;9.00;99.90;;;;;;5014044;28;20045;-75